TGW565 RPMD-WSSS
Flight info
| Callsign | TGW565 |
|---|---|
| Flight time | N/A |
| Altitude | 36000 |
| Route | DEWIN1D DEWIN W10 ZAM A341 VSN W461 BRU M646 TOMAN KARTO2A |
| Aircraft | A320/M-SDFGHIRWYZ/LB1 |
Departure
| Time | 2026-05-06 14:17 |
|---|---|
| Airport | Francisco Bangoy International Airport (RPMD) |
Arrival
| Time | N/A |
|---|---|
| Airport | Singapore Changi Airport (WSSS) |
| Time | Latitude | Longitude | Altitude | Speed | Heading |
|---|---|---|---|---|---|
| 2026-05-06 13:43 | 7.12950 | 125.64547 | 101 ft | 0 kts | 320° |
| 2026-05-06 13:59 | 7.12949 | 125.64547 | 101 ft | 2 kts | 320° |
| 2026-05-06 13:59 | 7.12929 | 125.64563 | 99 ft | 4 kts | 323° |
| 2026-05-06 14:00 | 7.12907 | 125.64579 | 100 ft | 4 kts | 330° |
| 2026-05-06 14:00 | 7.12883 | 125.64590 | 100 ft | 4 kts | 349° |
| 2026-05-06 14:00 | 7.12861 | 125.64589 | 100 ft | 3 kts | 46° |
| 2026-05-06 14:00 | 7.12856 | 125.64584 | 99 ft | 0 kts | 49° |
| 2026-05-06 14:06 | 7.12857 | 125.64585 | 73 ft | 1 kts | 49° |
| 2026-05-06 14:06 | 7.12876 | 125.64607 | 100 ft | 5 kts | 49° |
| 2026-05-06 14:07 | 7.12897 | 125.64631 | 101 ft | 5 kts | 49° |
| 2026-05-06 14:07 | 7.12917 | 125.64656 | 101 ft | 4 kts | 49° |
| 2026-05-06 14:07 | 7.12937 | 125.64679 | 101 ft | 4 kts | 50° |
| 2026-05-06 14:07 | 7.12957 | 125.64703 | 101 ft | 5 kts | 49° |
| 2026-05-06 14:08 | 7.12979 | 125.64728 | 101 ft | 5 kts | 49° |
| 2026-05-06 14:08 | 7.13004 | 125.64757 | 101 ft | 6 kts | 49° |
| 2026-05-06 14:08 | 7.13009 | 125.64798 | 101 ft | 7 kts | 109° |
| 2026-05-06 14:08 | 7.12978 | 125.64834 | 102 ft | 7 kts | 140° |
| 2026-05-06 14:09 | 7.12939 | 125.64867 | 102 ft | 6 kts | 140° |
| 2026-05-06 14:09 | 7.12935 | 125.64870 | 102 ft | 0 kts | 140° |
| 2026-05-06 14:09 | 7.12934 | 125.64871 | 102 ft | 1 kts | 140° |
| 2026-05-06 14:10 | 7.12889 | 125.64911 | 102 ft | 10 kts | 127° |
| 2026-05-06 14:10 | 7.12901 | 125.64976 | 102 ft | 11 kts | 55° |
| 2026-05-06 14:10 | 7.12955 | 125.65041 | 102 ft | 17 kts | 49° |
| 2026-05-06 14:10 | 7.13058 | 125.65160 | 101 ft | 24 kts | 49° |
| 2026-05-06 14:11 | 7.13175 | 125.65293 | 100 ft | 26 kts | 50° |
| 2026-05-06 14:11 | 7.13295 | 125.65434 | 101 ft | 27 kts | 50° |
| 2026-05-06 14:11 | 7.13381 | 125.65506 | 99 ft | 11 kts | 8° |
| 2026-05-06 14:11 | 7.13441 | 125.65522 | 100 ft | 0 kts | 37° |
| 2026-05-06 14:13 | 7.13443 | 125.65523 | 100 ft | 1 kts | 37° |
| 2026-05-06 14:13 | 7.13456 | 125.65551 | 100 ft | 5 kts | 94° |
| 2026-05-06 14:13 | 7.13451 | 125.65559 | 100 ft | 1 kts | 138° |
| 2026-05-06 14:14 | 7.13447 | 125.65562 | 100 ft | 1 kts | 138° |
| 2026-05-06 14:14 | 7.13458 | 125.65553 | 100 ft | 0 kts | 140° |
| 2026-05-06 14:15 | 7.13460 | 125.65552 | 100 ft | 0 kts | 140° |
| 2026-05-06 14:15 | 7.13428 | 125.65569 | 101 ft | 7 kts | 171° |
| 2026-05-06 14:15 | 7.13385 | 125.65540 | 99 ft | 0 kts | 229° |
| 2026-05-06 14:15 | 7.13382 | 125.65537 | 99 ft | 0 kts | 229° |
| 2026-05-06 14:16 | 7.13381 | 125.65535 | 99 ft | 0 kts | 229° |
| 2026-05-06 14:16 | 7.13380 | 125.65535 | 99 ft | 1 kts | 229° |
| 2026-05-06 14:16 | 7.13308 | 125.65451 | 99 ft | 44 kts | 230° |
| 2026-05-06 14:16 | 7.12980 | 125.65070 | 102 ft | 97 kts | 227° |
| 2026-05-06 14:17 | 7.11754 | 125.63648 | 140 ft | 160 kts | 230° |
| 2026-05-06 14:17 | 7.11051 | 125.62859 | 727 ft | 137 kts | 229° |
| 2026-05-06 14:17 | 7.10413 | 125.62182 | 1075 ft | 139 kts | 227° |
| 2026-05-06 14:18 | 7.09704 | 125.61442 | 1257 ft | 148 kts | 225° |
| 2026-05-06 14:18 | 7.08900 | 125.60768 | 1743 ft | 154 kts | 214° |
| 2026-05-06 14:18 | 7.08028 | 125.60187 | 2446 ft | 153 kts | 213° |
| 2026-05-06 14:18 | 7.07006 | 125.59533 | 2559 ft | 192 kts | 218° |
| 2026-05-06 14:19 | 7.06021 | 125.58695 | 3085 ft | 184 kts | 223° |
| 2026-05-06 14:19 | 7.05063 | 125.57809 | 3517 ft | 187 kts | 224° |
| 2026-05-06 14:19 | 7.04165 | 125.56851 | 3875 ft | 194 kts | 243° |
| 2026-05-06 14:19 | 7.03843 | 125.55539 | 4132 ft | 200 kts | 279° |
| 2026-05-06 14:20 | 7.04358 | 125.54237 | 4399 ft | 208 kts | 315° |
| 2026-05-06 14:20 | 7.05582 | 125.53472 | 4780 ft | 211 kts | 343° |
| 2026-05-06 14:20 | 7.06986 | 125.52985 | 5257 ft | 217 kts | 342° |
| 2026-05-06 14:20 | 7.08409 | 125.52416 | 5813 ft | 221 kts | 336° |
| 2026-05-06 14:21 | 7.09786 | 125.51714 | 6378 ft | 226 kts | 333° |
| 2026-05-06 14:21 | 7.11190 | 125.50942 | 6747 ft | 238 kts | 332° |
| 2026-05-06 14:21 | 7.12663 | 125.50129 | 7311 ft | 242 kts | 333° |
| 2026-05-06 14:21 | 7.13669 | 125.49584 | 7722 ft | 244 kts | 334° |
| 2026-05-06 14:22 | 7.15677 | 125.48529 | 8539 ft | 247 kts | 334° |
| 2026-05-06 14:22 | 7.17206 | 125.47746 | 9147 ft | 250 kts | 335° |